Time;durP1;ratioP1;P1;durP2;ratioP2;P2;SDS_P1;SDS_P2;PMS_P1;PMS_P2;Temp;Humidity;BMP_temperature;BMP_pressure;BME280_temperature;BME280_humidity;BME280_pressure;Samples;Min_cycle;Max_cycle;Signal;HPM_P1;HPM_P2
2022/06/21 00:01:32;;;;;;;7.18;5.20;;;23.40;89.60;;;;;;5092872;28;20028;-68
2022/06/21 00:03:57;;;;;;;12.07;5.25;;;23.40;90.20;;;;;;5093796;28;20024;-68
2022/06/21 00:06:25;;;;;;;6.35;4.75;;;23.40;90.30;;;;;;5093053;28;20570;-68
2022/06/21 00:08:51;;;;;;;10.15;4.93;;;23.30;90.70;;;;;;5093447;28;20023;-68
2022/06/21 00:11:27;;;;;;;12.32;4.43;;;23.30;91.10;;;;;;5093180;28;20061;-68
2022/06/21 00:13:53;;;;;;;5.90;4.95;;;23.20;90.80;;;;;;5087991;28;20341;-68
2022/06/21 00:16:20;;;;;;;4.60;3.17;;;23.20;90.70;;;;;;5072690;28;20086;-68
2022/06/21 00:18:47;;;;;;;5.88;3.97;;;23.20;90.00;;;;;;5072991;28;20039;-68
2022/06/21 00:21:30;;;;;;;6.32;3.47;;;23.10;87.70;;;;;;5073233;28;20090;-68
2022/06/21 00:23:56;;;;;;;4.35;3.55;;;23.10;87.00;;;;;;5072758;28;20082;-68
2022/06/21 00:26:24;;;;;;;4.30;3.38;;;23.00;86.70;;;;;;5076884;28;20028;-67
2022/06/21 00:28:50;;;;;;;5.72;3.47;;;23.00;86.80;;;;;;5085680;28;20048;-68
2022/06/21 00:31:23;;;;;;;5.13;3.97;;;22.90;86.50;;;;;;5091591;28;20051;-68
2022/06/21 00:33:49;;;;;;;6.47;3.55;;;22.90;86.80;;;;;;5091909;28;20104;-68
2022/06/21 00:36:35;;;;;;;4.60;3.13;;;22.90;87.20;;;;;;5092632;28;20059;-69
2022/06/21 00:39:03;;;;;;;5.90;3.80;;;22.80;87.80;;;;;;5092490;28;20024;-69
2022/06/21 00:41:49;;;;;;;4.28;3.08;;;22.80;87.40;;;;;;5092083;28;20020;-68
2022/06/21 00:44:22;;;;;;;4.72;3.42;;;22.80;87.70;;;;;;5092808;28;20020;-69
2022/06/21 00:47:18;;;;;;;4.20;3.28;;;22.70;88.40;;;;;;5092205;28;20051;-68
2022/06/21 00:49:58;;;;;;;4.45;3.45;;;22.70;89.00;;;;;;5048699;28;20044;-68
2022/06/21 00:52:46;;;;;;;5.32;3.85;;;22.70;88.90;;;;;;5092239;28;20350;-68
2022/06/21 00:55:18;;;;;;;4.82;3.08;;;22.70;89.20;;;;;;5092602;28;20036;-68
2022/06/21 00:57:54;;;;;;;4.15;2.83;;;22.60;89.50;;;;;;5092217;28;20223;-68
2022/06/21 01:00:29;;;;;;;3.30;2.67;;;22.60;88.90;;;;;;5092781;28;20122;-68
2022/06/21 01:02:56;;;;;;;3.70;2.40;;;22.60;88.00;;;;;;5092656;28;20032;-67
2022/06/21 01:05:24;;;;;;;4.30;2.97;;;22.60;89.20;;;;;;5092149;28;20532;-67
2022/06/21 01:07:53;;;;;;;3.78;3.00;;;22.60;89.00;;;;;;5092233;28;20020;-67
2022/06/21 01:10:19;;;;;;;4.18;2.92;;;22.60;89.20;;;;;;5092623;28;20031;-69
2022/06/21 01:12:53;;;;;;;4.82;2.92;;;22.50;87.90;;;;;;5091961;28;20032;-68
2022/06/21 01:15:26;;;;;;;3.25;2.25;;;22.50;86.70;;;;;;5092477;28;20024;-69
2022/06/21 01:18:00;;;;;;;3.45;2.40;;;22.40;86.50;;;;;;5092807;28;20440;-68
2022/06/21 01:20:30;;;;;;;2.63;2.22;;;22.30;85.00;;;;;;5092095;28;20054;-68
2022/06/21 01:23:05;;;;;;;2.90;2.13;;;22.30;85.80;;;;;;5091991;28;20480;-68
2022/06/21 01:25:34;;;;;;;3.05;2.28;;;22.20;86.40;;;;;;5091619;28;20055;-68
2022/06/21 01:28:00;;;;;;;4.07;2.58;;;22.20;84.70;;;;;;5092191;28;20088;-68
2022/06/21 01:30:28;;;;;;;2.22;2.00;;;22.20;85.00;;;;;;5092239;28;20507;-69
2022/06/21 01:32:56;;;;;;;3.55;2.40;;;22.10;84.90;;;;;;5092081;28;20031;-68
2022/06/21 01:35:36;;;;;;;3.05;2.13;;;22.00;85.50;;;;;;5092180;28;20036;-68
2022/06/21 01:38:04;;;;;;;2.20;1.75;;;22.00;86.00;;;;;;5092522;28;20043;-69
2022/06/21 01:40:35;;;;;;;2.35;1.85;;;21.90;86.30;;;;;;5091762;28;20028;-68
2022/06/21 01:43:06;;;;;;;1.63;1.40;;;21.90;85.80;;;;;;5091864;28;20103;-68
2022/06/21 01:45:38;;;;;;;3.67;1.60;;;21.70;85.00;;;;;;5095389;28;20048;-68
2022/06/21 01:48:07;;;;;;;1.60;1.30;;;21.60;83.50;;;;;;5096412;28;20035;-68
2022/06/21 01:50:36;;;;;;;1.20;1.10;;;21.60;82.30;;;;;;5095426;28;20020;-68
2022/06/21 01:53:03;;;;;;;1.23;1.05;;;21.50;81.30;;;;;;5095838;28;20040;-68
2022/06/21 01:55:34;;;;;;;2.17;0.88;;;21.50;80.40;;;;;;5095502;28;20090;-68
2022/06/21 01:58:00;;;;;;;;;;;21.40;79.90;;;;;;5096527;28;20028;-68
2022/06/21 02:00:27;;;;;;;1.20;0.90;;;21.40;78.50;;;;;;5095649;28;19904;-68
2022/06/21 02:03:01;;;;;;;1.00;0.90;;;21.30;77.40;;;;;;5095300;28;20024;-68
2022/06/21 02:05:43;;;;;;;0.80;0.80;;;21.30;78.40;;;;;;5096047;28;20034;-68
2022/06/21 02:08:12;;;;;;;0.63;0.63;;;21.20;78.00;;;;;;5096079;28;20016;-68
2022/06/21 02:10:45;;;;;;;0.80;0.80;;;21.20;76.60;;;;;;5095219;28;20202;-68
2022/06/21 02:13:41;;;;;;;0.80;0.70;;;21.20;77.20;;;;;;5095245;28;20393;-68
2022/06/21 02:16:20;;;;;;;0.70;0.70;;;21.20;76.70;;;;;;5095714;28;20103;-68
2022/06/21 02:18:53;;;;;;;0.95;0.88;;;21.10;76.20;;;;;;5095160;28;20038;-68
2022/06/21 02:21:38;;;;;;;1.08;0.98;;;21.00;74.90;;;;;;5095478;28;20020;-68
2022/06/21 02:24:04;;;;;;;0.80;0.75;;;21.00;73.10;;;;;;5093291;28;20039;-68
2022/06/21 02:26:33;;;;;;;0.55;0.55;;;20.90;72.70;;;;;;5095268;28;20031;-68
2022/06/21 02:29:00;;;;;;;0.82;0.70;;;20.90;72.00;;;;;;5094918;28;20028;-68
2022/06/21 02:31:27;;;;;;;0.90;0.90;;;20.90;71.20;;;;;;5094853;28;20024;-68
2022/06/21 02:33:54;;;;;;;0.57;0.57;;;20.90;71.30;;;;;;5094584;28;20423;-67
2022/06/21 02:36:28;;;;;;;0.70;0.60;;;20.90;70.10;;;;;;5094854;28;20024;-67
2022/06/21 02:38:58;;;;;;;0.55;0.47;;;20.80;69.10;;;;;;5094740;28;20028;-67
2022/06/21 02:41:35;;;;;;;0.50;0.50;;;20.80;67.30;;;;;;5095012;28;20139;-67
2022/06/21 02:44:19;;;;;;;1.75;0.60;;;20.80;67.00;;;;;;5094994;28;20381;-67
2022/06/21 02:46:52;;;;;;;0.60;0.60;;;20.70;67.20;;;;;;5094545;28;20070;-67
2022/06/21 02:49:23;;;;;;;0.50;0.50;;;20.60;66.20;;;;;;5094534;28;20031;-68
2022/06/21 02:52:01;;;;;;;0.50;0.50;;;20.50;66.60;;;;;;5094100;28;20036;-68
2022/06/21 02:54:40;;;;;;;0.50;0.50;;;20.50;66.90;;;;;;5093978;28;20496;-68
2022/06/21 02:57:26;;;;;;;0.60;0.60;;;20.40;66.60;;;;;;5092249;28;20337;-68
2022/06/21 02:59:53;;;;;;;0.50;0.50;;;20.30;67.20;;;;;;5093496;28;20020;-67
2022/06/21 03:02:26;;;;;;;0.60;0.60;;;20.30;66.60;;;;;;5093799;28;20103;-68
2022/06/21 03:04:56;;;;;;;0.60;0.50;;;20.20;62.20;;;;;;5093513;28;20126;-68
2022/06/21 03:07:36;;;;;;;0.77;0.60;;;20.10;61.00;;;;;;5094086;28;20020;-68
2022/06/21 03:10:03;;;;;;;0.57;0.57;;;20.10;60.50;;;;;;5091136;28;20035;-67
2022/06/21 03:12:32;;;;;;;1.63;0.60;;;20.00;61.00;;;;;;5082869;28;20086;-68
2022/06/21 03:15:03;;;;;;;0.63;0.60;;;20.00;61.60;;;;;;5078439;28;20032;-69
2022/06/21 03:17:45;;;;;;;0.55;0.55;;;20.00;60.30;;;;;;5093950;28;20024;-68
2022/06/21 03:20:14;;;;;;;0.85;0.60;;;19.90;60.90;;;;;;5080726;28;20064;-68
2022/06/21 03:22:42;;;;;;;0.60;0.60;;;19.90;61.80;;;;;;5073390;28;20035;-68
2022/06/21 03:25:20;;;;;;;1.48;0.80;;;19.90;61.50;;;;;;5074074;28;20095;-68
2022/06/21 03:27:53;;;;;;;0.68;0.60;;;19.90;61.30;;;;;;5078477;28;20108;-68
2022/06/21 03:30:22;;;;;;;0.60;0.60;;;19.90;62.20;;;;;;5093781;28;20110;-68
2022/06/21 03:32:51;;;;;;;0.60;0.52;;;19.90;62.90;;;;;;5093850;28;20030;-68
2022/06/21 03:35:17;;;;;;;1.77;0.60;;;20.00;62.50;;;;;;5093627;28;20527;-68
2022/06/21 03:37:44;;;;;;;2.50;0.55;;;19.90;60.30;;;;;;5093118;28;20103;-68
2022/06/21 03:43:26;;;;;;;1.50;0.60;;;20.00;58.20;;;;;;5093352;28;20093;-69
2022/06/21 03:45:54;;;;;;;0.82;0.60;;;19.90;57.20;;;;;;5079475;28;20048;-70
2022/06/21 03:48:33;;;;;;;2.83;0.70;;;19.90;56.90;;;;;;5073201;28;20024;-69
2022/06/21 03:51:08;;;;;;;0.60;0.60;;;19.80;56.30;;;;;;5073008;28;20031;-68
2022/06/21 03:53:41;;;;;;;1.75;0.80;;;19.80;56.90;;;;;;5073290;28;20123;-67
2022/06/21 03:56:13;;;;;;;0.60;0.60;;;19.80;57.40;;;;;;5073437;28;20029;-69
2022/06/21 03:58:45;;;;;;;0.75;0.65;;;19.80;57.90;;;;;;5054825;28;20125;-69
2022/06/21 04:01:15;;;;;;;1.23;0.90;;;19.80;58.10;;;;;;5055145;28;20033;-69
2022/06/21 04:03:54;;;;;;;1.40;0.60;;;19.80;57.50;;;;;;5072863;28;20033;-69
2022/06/21 04:06:22;;;;;;;1.35;0.80;;;19.90;58.20;;;;;;5072481;28;20078;-69
2022/06/21 04:09:26;;;;;;;2.83;0.68;;;19.90;58.30;;;;;;5072359;28;20082;-68
2022/06/21 04:12:04;;;;;;;3.53;0.90;;;19.90;58.30;;;;;;5042053;28;20048;-68
2022/06/21 04:14:42;;;;;;;1.17;0.77;;;20.00;58.00;;;;;;5072685;28;20060;-68
2022/06/21 04:17:18;;;;;;;4.90;0.70;;;19.90;57.50;;;;;;5072632;28;20033;-67
2022/06/21 04:20:09;;;;;;;0.95;0.77;;;20.00;57.80;;;;;;5084037;28;20483;-68
2022/06/21 04:22:41;;;;;;;0.80;0.80;;;20.00;58.20;;;;;;5083072;28;20021;-69
2022/06/21 04:25:17;;;;;;;2.47;0.90;;;20.00;57.50;;;;;;5072693;28;20138;-68
2022/06/21 04:27:54;;;;;;;0.60;0.60;;;20.10;56.90;;;;;;5072244;28;20396;-68
2022/06/21 04:30:28;;;;;;;0.93;0.70;;;20.10;56.30;;;;;;5072725;28;20047;-68
2022/06/21 04:33:04;;;;;;;3.40;0.80;;;20.10;55.40;;;;;;5072083;28;20098;-68
2022/06/21 04:35:38;;;;;;;0.73;0.60;;;20.10;55.50;;;;;;5072367;28;20174;-68
2022/06/21 04:38:18;;;;;;;1.70;1.02;;;20.10;55.20;;;;;;5072130;28;20105;-68
2022/06/21 04:40:56;;;;;;;1.52;0.90;;;20.10;55.30;;;;;;5087980;28;20044;-68
2022/06/21 04:43:25;;;;;;;0.60;0.60;;;20.10;54.50;;;;;;5091946;28;20040;-69
2022/06/21 04:45:57;;;;;;;0.65;0.60;;;20.10;53.90;;;;;;5091704;28;20185;-66
2022/06/21 04:48:32;;;;;;;2.85;0.73;;;20.10;52.60;;;;;;5092608;28;20035;-67
2022/06/21 04:51:16;;;;;;;1.27;0.73;;;20.10;52.80;;;;;;5092209;28;20416;-68
2022/06/21 04:53:54;;;;;;;0.70;0.70;;;20.10;53.30;;;;;;5092239;28;20154;-69
2022/06/21 04:57:01;;;;;;;3.00;1.27;;;20.10;52.60;;;;;;5092572;28;20028;-67
2022/06/21 04:59:44;;;;;;;1.17;0.60;;;20.10;52.30;;;;;;5078569;28;20036;-68
2022/06/21 05:02:18;;;;;;;0.50;0.50;;;20.20;51.80;;;;;;5092276;28;20025;-68
2022/06/21 05:04:45;;;;;;;1.33;0.65;;;20.40;51.70;;;;;;5092104;28;20102;-67
2022/06/21 05:07:21;;;;;;;0.57;0.57;;;20.50;51.60;;;;;;5092437;28;20029;-68
2022/06/21 05:09:48;;;;;;;0.65;0.65;;;20.70;51.00;;;;;;5092025;28;20024;-68
2022/06/21 05:12:32;;;;;;;0.75;0.75;;;20.90;50.60;;;;;;5092203;28;20469;-68
2022/06/21 05:15:25;;;;;;;1.25;0.85;;;21.20;50.20;;;;;;5091878;28;20093;-68
2022/06/21 05:18:00;;;;;;;0.82;0.70;;;21.50;49.90;;;;;;5090775;28;20028;-68
2022/06/21 05:20:31;;;;;;;1.30;0.75;;;21.80;49.50;;;;;;5091748;28;20384;-68
2022/06/21 05:23:01;;;;;;;0.60;0.50;;;22.10;47.80;;;;;;5091594;28;20059;-67
2022/06/21 05:25:40;;;;;;;0.98;0.70;;;22.40;47.60;;;;;;5092125;28;20028;-67
2022/06/21 05:28:25;;;;;;;1.00;0.65;;;22.70;47.00;;;;;;5091871;28;20516;-68
2022/06/21 05:31:14;;;;;;;1.17;0.73;;;22.90;46.70;;;;;;5092222;28;20060;-68
2022/06/21 05:33:46;;;;;;;0.95;0.60;;;23.20;45.10;;;;;;5092072;28;20033;-68
2022/06/21 05:36:17;;;;;;;0.57;0.50;;;23.50;43.40;;;;;;5092347;28;20028;-68
2022/06/21 05:38:59;;;;;;;2.08;0.70;;;23.70;44.00;;;;;;5092110;28;20024;-68
2022/06/21 05:41:45;;;;;;;0.77;0.73;;;23.90;43.50;;;;;;5092533;28;20093;-69
2022/06/21 05:44:13;;;;;;;0.65;0.65;;;24.10;43.30;;;;;;5092127;28;20039;-68
2022/06/21 05:46:44;;;;;;;1.92;0.73;;;24.50;43.30;;;;;;5091541;28;20048;-68
2022/06/21 05:49:37;;;;;;;1.20;0.77;;;25.00;42.70;;;;;;5091585;28;20020;-68
2022/06/21 05:52:24;;;;;;;1.50;0.85;;;25.30;41.60;;;;;;5091588;28;20116;-67
2022/06/21 05:54:57;;;;;;;0.88;0.80;;;26.10;40.30;;;;;;5091453;28;20074;-67
2022/06/21 05:57:26;;;;;;;4.03;0.88;;;27.00;39.20;;;;;;5091918;28;20082;-68
2022/06/21 05:59:52;;;;;;;1.63;0.57;;;28.70;37.50;;;;;;5091292;28;20086;-68
2022/06/21 06:02:30;;;;;;;1.20;0.85;;;28.30;36.10;;;;;;5091689;28;20101;-68
2022/06/21 06:05:13;;;;;;;0.68;0.60;;;29.70;36.50;;;;;;5091231;28;20482;-69
2022/06/21 06:07:48;;;;;;;1.38;0.80;;;30.70;34.10;;;;;;5092013;28;20028;-68
2022/06/21 06:10:15;;;;;;;0.82;0.70;;;29.00;34.40;;;;;;5092072;28;20069;-67
2022/06/21 06:12:49;;;;;;;2.78;1.20;;;29.40;35.50;;;;;;5091388;28;20036;-68
2022/06/21 06:15:20;;;;;;;0.77;0.77;;;28.90;34.70;;;;;;5091748;28;20060;-68
2022/06/21 06:18:08;;;;;;;3.05;0.77;;;28.20;35.60;;;;;;5091894;28;20028;-68
2022/06/21 06:21:17;;;;;;;1.95;0.90;;;27.50;37.00;;;;;;5091284;28;20086;-67
2022/06/21 06:23:53;;;;;;;2.25;0.70;;;27.00;38.00;;;;;;4986536;28;20034;-68
2022/06/21 06:26:26;;;;;;;1.27;0.63;;;26.70;39.20;;;;;;4989978;28;20034;-68
2022/06/21 06:29:17;;;;;;;1.15;0.60;;;26.50;38.80;;;;;;4973554;28;20042;-67
2022/06/21 06:31:55;;;;;;;0.60;0.60;;;26.40;39.30;;;;;;4993581;28;20129;-68
2022/06/21 06:34:25;;;;;;;1.55;0.60;;;26.50;40.30;;;;;;4992897;28;20042;-68
2022/06/21 06:36:56;;;;;;;3.47;0.95;;;26.70;39.70;;;;;;4992859;28;20081;-68
2022/06/21 06:39:34;;;;;;;2.08;0.57;;;26.90;38.70;;;;;;4993141;28;20072;-68
2022/06/21 06:42:28;;;;;;;2.08;0.98;;;27.20;38.30;;;;;;4992469;28;20125;-69
2022/06/21 06:44:59;;;;;;;1.27;0.80;;;27.90;38.70;;;;;;4989060;28;20053;-68
2022/06/21 06:47:37;;;;;;;1.67;0.90;;;28.80;37.40;;;;;;4992731;28;20042;-68
2022/06/21 06:50:14;;;;;;;2.22;0.95;;;29.60;36.90;;;;;;4992129;28;20483;-68
2022/06/21 06:52:53;;;;;;;0.88;0.45;;;30.40;36.70;;;;;;4992717;28;20557;-68
2022/06/21 06:55:19;;;;;;;0.60;0.60;;;30.90;35.00;;;;;;5062501;28;20060;-68
2022/06/21 06:58:11;;;;;;;0.57;0.50;;;31.10;33.80;;;;;;5074353;28;20056;-68
2022/06/21 07:00:46;;;;;;;1.33;0.60;;;31.10;33.60;;;;;;5069989;28;20489;-68
2022/06/21 07:03:19;;;;;;;1.95;0.52;;;31.20;33.70;;;;;;5073858;28;20491;-67
2022/06/21 07:05:59;;;;;;;2.03;0.68;;;31.10;33.30;;;;;;5074231;28;20457;-68
2022/06/21 07:08:34;;;;;;;2.55;0.70;;;31.00;33.30;;;;;;5074054;28;20422;-68
2022/06/21 07:11:05;;;;;;;0.77;0.63;;;31.00;33.20;;;;;;5074170;28;20093;-68
2022/06/21 07:13:32;;;;;;;1.23;0.60;;;31.00;33.30;;;;;;5073883;28;20037;-68
2022/06/21 07:16:05;;;;;;;1.05;0.65;;;31.10;33.70;;;;;;5073657;28;20090;-67
2022/06/21 07:18:39;;;;;;;1.23;0.60;;;31.00;33.50;;;;;;5074034;28;20025;-68
2022/06/21 07:21:05;;;;;;;1.98;1.00;;;31.10;32.90;;;;;;5073379;28;20021;-68
2022/06/21 07:23:31;;;;;;;1.33;0.68;;;31.00;33.20;;;;;;5073449;28;20434;-67
2022/06/21 07:26:04;;;;;;;1.13;0.70;;;31.50;34.10;;;;;;5073473;28;20025;-68
2022/06/21 07:28:42;;;;;;;0.98;0.70;;;32.00;33.90;;;;;;5073805;28;20358;-67
2022/06/21 07:31:25;;;;;;;1.27;0.57;;;32.10;33.00;;;;;;5073828;28;20028;-68
2022/06/21 07:34:10;;;;;;;3.20;0.75;;;32.00;32.30;;;;;;5073584;28;20041;-68
2022/06/21 07:36:48;;;;;;;1.30;0.70;;;32.00;32.80;;;;;;5073822;28;20027;-68
2022/06/21 07:39:25;;;;;;;1.08;0.70;;;32.10;32.40;;;;;;5072887;28;20071;-69
2022/06/21 07:41:57;;;;;;;0.55;0.52;;;31.90;32.20;;;;;;5072851;28;20021;-68
2022/06/21 07:44:26;;;;;;;1.75;0.77;;;31.40;32.20;;;;;;5073446;28;20048;-68
2022/06/21 07:46:56;;;;;;;0.47;0.47;;;31.20;32.40;;;;;;5073404;28;20473;-68
2022/06/21 07:49:26;;;;;;;0.77;0.60;;;31.20;32.50;;;;;;5073182;28;20020;-68
2022/06/21 07:52:00;;;;;;;0.97;0.80;;;31.20;33.20;;;;;;5073358;28;20028;-68
2022/06/21 07:54:39;;;;;;;1.10;0.75;;;31.00;33.90;;;;;;5072821;28;20422;-68
2022/06/21 07:57:13;;;;;;;1.17;0.73;;;30.70;33.50;;;;;;5072735;28;20024;-68
2022/06/21 07:59:46;;;;;;;1.73;0.77;;;30.30;33.40;;;;;;5072672;28;20041;-68
2022/06/21 08:08:21;;;;;;;1.23;0.97;;;29.20;35.40;;;;;;5071976;28;20143;-67
2022/06/21 08:11:00;;;;;;;1.35;0.75;;;28.90;35.50;;;;;;5072433;28;20376;-67
2022/06/21 08:13:27;;;;;;;1.08;0.90;;;28.70;36.20;;;;;;5072803;28;20249;-68
2022/06/21 08:16:09;;;;;;;1.10;0.82;;;28.40;36.10;;;;;;5073092;28;20564;-67
2022/06/21 08:18:47;;;;;;;1.38;0.90;;;28.20;36.30;;;;;;5072745;28;20025;-68
2022/06/21 08:21:17;;;;;;;1.23;0.68;;;27.90;36.40;;;;;;5074569;28;20021;-67
2022/06/21 08:23:49;;;;;;;0.70;0.63;;;27.70;37.60;;;;;;5072512;28;20028;-68
2022/06/21 08:26:16;;;;;;;2.03;0.82;;;27.60;38.60;;;;;;5071633;28;20020;-67
2022/06/21 08:29:01;;;;;;;3.47;0.77;;;27.40;38.30;;;;;;5072128;28;20128;-67
2022/06/21 08:31:41;;;;;;;1.73;0.70;;;27.40;37.90;;;;;;5072534;28;20024;-68
2022/06/21 08:34:19;;;;;;;0.77;0.77;;;27.30;38.90;;;;;;5071767;28;20487;-68
2022/06/21 08:36:52;;;;;;;1.25;1.00;;;27.00;38.30;;;;;;5072358;28;20181;-68
2022/06/21 08:39:27;;;;;;;2.28;1.13;;;26.80;38.80;;;;;;5071985;28;20117;-68
2022/06/21 08:42:02;;;;;;;0.65;0.65;;;26.60;39.10;;;;;;5055206;28;20020;-68
2022/06/21 08:48:21;;;;;;;1.52;0.90;;;26.10;40.10;;;;;;5092303;28;20062;-69
2022/06/21 08:51:03;;;;;;;1.75;0.60;;;25.60;41.20;;;;;;4990451;28;20038;-69
2022/06/21 08:53:55;;;;;;;0.70;0.70;;;25.40;41.30;;;;;;4989688;28;20038;-68
2022/06/21 08:56:35;;;;;;;2.22;0.90;;;25.20;41.00;;;;;;5066550;28;20051;-71
2022/06/21 08:59:34;;;;;;;5.55;0.70;;;25.10;42.10;;;;;;5092060;28;20030;-68
2022/06/21 09:02:27;;;;;;;0.60;0.60;;;25.00;41.30;;;;;;5092283;28;20177;-68
2022/06/21 09:05:13;;;;;;;3.50;0.80;;;25.00;42.60;;;;;;5092126;28;20115;-69
2022/06/21 09:08:03;;;;;;;0.70;0.70;;;24.90;42.00;;;;;;5090268;28;20403;-71
2022/06/21 09:10:53;;;;;;;1.20;0.60;;;24.90;42.80;;;;;;5092169;28;20070;-68
2022/06/21 09:13:18;;;;;;;0.70;0.70;;;24.80;41.80;;;;;;5091299;28;20060;-68
2022/06/21 09:15:44;;;;;;;1.30;0.90;;;24.70;41.30;;;;;;5092067;28;20071;-69
2022/06/21 09:18:12;;;;;;;0.63;0.60;;;24.60;42.10;;;;;;5091307;28;20117;-67
2022/06/21 09:21:04;;;;;;;0.90;0.85;;;24.60;41.70;;;;;;5091970;28;20097;-69
2022/06/21 09:23:41;;;;;;;2.33;0.65;;;24.40;41.00;;;;;;5092099;28;20386;-69
2022/06/21 09:26:09;;;;;;;1.63;0.80;;;24.40;41.90;;;;;;5091477;28;20031;-66
2022/06/21 09:28:41;;;;;;;1.00;0.63;;;24.30;41.30;;;;;;5091811;28;20039;-67
2022/06/21 09:31:57;;;;;;;2.58;0.50;;;24.20;40.90;;;;;;5091549;28;20086;-67
2022/06/21 09:34:40;;;;;;;1.27;0.68;;;24.10;41.90;;;;;;5091488;28;20165;-68
2022/06/21 09:37:15;;;;;;;1.73;0.65;;;24.00;41.90;;;;;;5091327;28;20120;-68
2022/06/21 09:39:52;;;;;;;3.42;0.95;;;24.00;42.60;;;;;;5091990;28;20028;-67
2022/06/21 09:42:31;;;;;;;1.63;0.60;;;24.00;43.20;;;;;;5091830;28;20024;-67
2022/06/21 09:45:15;;;;;;;0.77;0.77;;;24.00;42.60;;;;;;5091379;28;20392;-68
2022/06/21 09:47:49;;;;;;;1.50;0.80;;;24.10;41.80;;;;;;5091896;28;20028;-68
2022/06/21 09:50:49;;;;;;;0.52;0.52;;;24.20;42.50;;;;;;5091090;28;20039;-68
2022/06/21 09:53:38;;;;;;;1.13;0.70;;;24.20;42.90;;;;;;5091338;28;20024;-68
2022/06/21 09:56:19;;;;;;;1.52;0.80;;;24.30;42.00;;;;;;5091682;28;20117;-68
2022/06/21 09:58:59;;;;;;;0.90;0.70;;;24.30;41.10;;;;;;5092103;28;20025;-68
2022/06/21 10:01:39;;;;;;;0.93;0.80;;;24.30;40.50;;;;;;5091270;28;20028;-68
2022/06/21 10:04:31;;;;;;;0.82;0.52;;;24.30;41.70;;;;;;5091455;28;20119;-67
2022/06/21 10:07:25;;;;;;;0.60;0.52;;;24.30;42.30;;;;;;5095397;28;20038;-68
2022/06/21 10:10:15;;;;;;;0.60;0.60;;;24.30;41.90;;;;;;5095459;28;20373;-69
2022/06/21 10:13:22;;;;;;;0.63;0.63;;;24.40;40.90;;;;;;5095476;28;20103;-68
2022/06/21 10:16:08;;;;;;;0.60;0.60;;;24.50;41.30;;;;;;5084838;28;20036;-68
2022/06/21 10:18:37;;;;;;;0.47;0.47;;;24.50;40.60;;;;;;5074786;28;20060;-68
2022/06/21 10:21:35;;;;;;;0.50;0.50;;;24.50;40.10;;;;;;5074809;28;20024;-69
2022/06/21 10:24:31;;;;;;;2.28;0.60;;;24.60;40.50;;;;;;5074978;28;20039;-68
2022/06/21 10:27:03;;;;;;;1.15;0.90;;;24.60;40.60;;;;;;5074451;28;20025;-68
2022/06/21 10:29:51;;;;;;;0.85;0.70;;;24.70;41.20;;;;;;5074733;28;20074;-68
2022/06/21 10:32:40;;;;;;;2.42;0.60;;;24.70;41.20;;;;;;5074367;28;20020;-67
2022/06/21 10:35:49;;;;;;;1.08;0.70;;;24.70;39.00;;;;;;5025405;28;20044;-68
2022/06/21 10:39:08;;;;;;;0.95;0.73;;;24.70;40.20;;;;;;5074519;28;20036;-67
2022/06/21 10:41:40;;;;;;;0.70;0.60;;;24.70;40.40;;;;;;4973403;28;20050;-68
2022/06/21 10:44:38;;;;;;;2.28;0.90;;;24.70;39.40;;;;;;5079007;28;20486;-67
2022/06/21 10:47:13;;;;;;;0.60;0.50;;;24.80;40.70;;;;;;5094683;28;20052;-68
2022/06/21 10:49:54;;;;;;;0.82;0.70;;;24.90;40.80;;;;;;5094679;28;20485;-68
2022/06/21 10:52:53;;;;;;;1.63;0.80;;;25.00;39.90;;;;;;5094331;28;20069;-67
2022/06/21 10:55:48;;;;;;;0.60;0.60;;;24.90;40.20;;;;;;5094278;28;20069;-67
2022/06/21 10:58:30;;;;;;;3.35;0.80;;;24.90;39.20;;;;;;5094190;28;20104;-66
2022/06/21 11:01:17;;;;;;;1.95;0.70;;;24.90;40.50;;;;;;5094354;28;20460;-68
2022/06/21 11:04:07;;;;;;;0.70;0.70;;;24.90;40.40;;;;;;5094406;28;20028;-68
2022/06/21 11:07:00;;;;;;;1.15;0.65;;;24.90;40.30;;;;;;5094693;28;20047;-68
2022/06/21 11:09:50;;;;;;;0.65;0.65;;;24.90;37.50;;;;;;5093733;28;20122;-68
2022/06/21 11:13:04;;;;;;;0.60;0.50;;;25.00;37.00;;;;;;5093692;28;20437;-67
2022/06/21 11:15:44;;;;;;;0.50;0.50;;;25.00;37.80;;;;;;5093539;28;20028;-68
2022/06/21 11:18:34;;;;;;;1.20;0.63;;;25.00;36.60;;;;;;5092897;28;20028;-67
2022/06/21 11:21:28;;;;;;;1.80;0.63;;;25.00;37.60;;;;;;5094431;28;20436;-68
2022/06/21 11:24:12;;;;;;;1.85;0.70;;;25.00;37.60;;;;;;5093785;28;20528;-68
2022/06/21 11:26:43;;;;;;;1.33;0.55;;;25.10;37.90;;;;;;5094118;28;20028;-68
2022/06/21 11:29:33;;;;;;;1.65;0.80;;;25.10;37.70;;;;;;5093371;28;20035;-68
2022/06/21 11:32:14;;;;;;;0.77;0.52;;;25.10;37.00;;;;;;5093943;28;20032;-69
2022/06/21 11:34:58;;;;;;;1.00;0.73;;;25.10;39.00;;;;;;5075808;28;20028;-68
2022/06/21 11:38:15;;;;;;;0.70;0.60;;;25.10;38.50;;;;;;5093213;28;20028;-68
2022/06/21 11:40:43;;;;;;;1.00;0.90;;;25.20;38.60;;;;;;5037808;28;20039;-68
2022/06/21 11:43:15;;;;;;;0.60;0.40;;;25.30;38.70;;;;;;5093275;28;20059;-68
2022/06/21 11:45:45;;;;;;;1.77;1.00;;;25.30;38.70;;;;;;5093481;28;20471;-68
2022/06/21 11:48:21;;;;;;;0.65;0.60;;;25.30;38.10;;;;;;5093411;28;20029;-67
2022/06/21 11:51:09;;;;;;;0.55;0.45;;;25.30;36.60;;;;;;5093722;28;20020;-68
2022/06/21 11:54:13;;;;;;;0.70;0.70;;;25.30;36.90;;;;;;5077313;28;20100;-68
2022/06/21 11:56:53;;;;;;;1.45;0.70;;;25.30;37.40;;;;;;5093287;28;20040;-68
2022/06/21 11:59:37;;;;;;;1.08;0.70;;;25.30;37.60;;;;;;5092738;28;20457;-67
2022/06/21 12:02:03;;;;;;;0.70;0.55;;;25.30;38.00;;;;;;5093213;28;20072;-68
2022/06/21 12:04:44;;;;;;;0.45;0.43;;;25.40;37.60;;;;;;5092374;28;20216;-67
2022/06/21 12:07:18;;;;;;;3.03;0.85;;;25.40;37.20;;;;;;5093386;28;20104;-67
2022/06/21 12:09:55;;;;;;;0.52;0.52;;;25.40;37.50;;;;;;5093126;28;20488;-68
2022/06/21 12:12:33;;;;;;;0.82;0.68;;;25.40;36.70;;;;;;5073356;28;20063;-67
2022/06/21 12:15:12;;;;;;;1.20;0.57;;;25.40;37.60;;;;;;5072716;28;20029;-68
2022/06/21 12:17:50;;;;;;;2.17;0.90;;;25.40;36.80;;;;;;5072919;28;20044;-67
2022/06/21 12:20:37;;;;;;;1.58;0.80;;;25.30;36.80;;;;;;5072445;28;20071;-67
2022/06/21 12:23:15;;;;;;;1.27;0.88;;;25.30;37.80;;;;;;5072716;28;20078;-68
2022/06/21 12:25:40;;;;;;;0.77;0.50;;;25.30;38.00;;;;;;5072786;28;20070;-68
2022/06/21 12:28:19;;;;;;;0.70;0.70;;;25.30;38.70;;;;;;5072334;28;20446;-68
2022/06/21 12:30:45;;;;;;;0.88;0.57;;;25.20;38.10;;;;;;5072918;28;20028;-67
2022/06/21 12:33:15;;;;;;;0.90;0.80;;;25.20;38.00;;;;;;5072052;28;20024;-68
2022/06/21 12:35:43;;;;;;;1.00;0.88;;;25.20;38.40;;;;;;5072490;28;20320;-67
2022/06/21 12:38:22;;;;;;;0.93;0.50;;;25.20;36.30;;;;;;5072289;28;20040;-68
2022/06/21 12:41:02;;;;;;;0.55;0.50;;;25.20;36.00;;;;;;5072029;28;20361;-67
2022/06/21 12:44:02;;;;;;;0.95;0.70;;;25.20;35.90;;;;;;5072054;28;20043;-67
2022/06/21 12:46:39;;;;;;;0.52;0.50;;;25.20;35.70;;;;;;5077683;28;20048;-68
2022/06/21 12:49:23;;;;;;;0.63;0.60;;;25.20;36.20;;;;;;5092484;28;20140;-69
2022/06/21 12:51:53;;;;;;;1.48;0.68;;;25.20;37.20;;;;;;5092544;28;20028;-69
2022/06/21 12:54:26;;;;;;;0.47;0.47;;;25.20;36.90;;;;;;5091652;28;20388;-68
2022/06/21 12:57:32;;;;;;;0.43;0.40;;;25.20;37.10;;;;;;5092523;28;20051;-69
2022/06/21 13:00:01;;;;;;;0.70;0.52;;;25.20;37.30;;;;;;5092359;28;20036;-68
2022/06/21 13:02:51;;;;;;;0.55;0.55;;;25.20;37.10;;;;;;5091728;28;20024;-69
2022/06/21 13:05:20;;;;;;;0.63;0.63;;;25.30;38.20;;;;;;5091779;28;20025;-68
2022/06/21 13:08:29;;;;;;;0.75;0.65;;;25.30;38.00;;;;;;5092270;28;20031;-69
2022/06/21 13:11:32;;;;;;;1.10;0.82;;;25.30;37.60;;;;;;5092265;28;20073;-68
2022/06/21 13:14:25;;;;;;;1.05;0.70;;;25.30;37.60;;;;;;4989969;28;20072;-68
2022/06/21 13:16:58;;;;;;;0.55;0.55;;;25.30;37.40;;;;;;5075697;28;20166;-69
2022/06/21 13:19:30;;;;;;;0.77;0.60;;;25.30;37.20;;;;;;5091648;28;20032;-67
2022/06/21 13:21:56;;;;;;;0.60;0.60;;;25.30;37.20;;;;;;5091692;28;20407;-67
2022/06/21 13:24:44;;;;;;;0.50;0.50;;;25.30;36.20;;;;;;5091725;28;20039;-67
2022/06/21 13:27:59;;;;;;;0.47;0.40;;;25.30;37.70;;;;;;5091828;28;20028;-68
2022/06/21 13:30:54;;;;;;;0.50;0.50;;;25.30;37.30;;;;;;4989765;28;20109;-68
2022/06/21 13:33:37;;;;;;;1.38;0.70;;;25.30;36.20;;;;;;5091529;28;20028;-66
2022/06/21 13:36:19;;;;;;;0.70;0.60;;;25.30;37.90;;;;;;5091919;28;20036;-68
2022/06/21 13:38:49;;;;;;;0.65;0.45;;;25.30;38.00;;;;;;5091929;28;20103;-68
2022/06/21 13:44:46;;;;;;;0.88;0.65;;;25.40;38.00;;;;;;5095708;28;20042;-68
2022/06/21 13:47:14;;;;;;;1.60;0.70;;;25.40;37.60;;;;;;5095433;28;20059;-67
2022/06/21 13:49:48;;;;;;;0.52;0.50;;;25.40;36.70;;;;;;5095376;28;20035;-68
2022/06/21 13:52:25;;;;;;;1.23;0.70;;;25.40;36.90;;;;;;5095486;28;20085;-68
2022/06/21 13:54:54;;;;;;;1.13;1.02;;;25.40;37.40;;;;;;5095666;28;20060;-68
2022/06/21 13:57:57;;;;;;;1.45;0.73;;;25.40;37.20;;;;;;5095470;28;20028;-68
2022/06/21 14:00:32;;;;;;;0.70;0.70;;;25.40;37.40;;;;;;5095077;28;20027;-67